sensor_id;sensor_type;location;lat;lon;timestamp;temperature;humidity
3334;DHT22;1679;50.392;8.008;2024-02-14T00:02:06;6.70;99.90
3334;DHT22;1679;50.392;8.008;2024-02-14T00:04:32;6.60;99.90
3334;DHT22;1679;50.392;8.008;2024-02-14T00:06:58;6.70;99.90
3334;DHT22;1679;50.392;8.008;2024-02-14T00:09:23;6.60;99.90
3334;DHT22;1679;50.392;8.008;2024-02-14T00:11:49;6.60;99.90
3334;DHT22;1679;50.392;8.008;2024-02-14T00:14:14;6.60;99.90
3334;DHT22;1679;50.392;8.008;2024-02-14T00:16:41;6.60;99.90
3334;DHT22;1679;50.392;8.008;2024-02-14T00:19:07;6.60;99.90
3334;DHT22;1679;50.392;8.008;2024-02-14T00:21:32;6.60;99.90
3334;DHT22;1679;50.392;8.008;2024-02-14T00:24:00;6.60;99.90
3334;DHT22;1679;50.392;8.008;2024-02-14T00:26:25;6.60;99.90
3334;DHT22;1679;50.392;8.008;2024-02-14T00:28:52;6.60;99.90
3334;DHT22;1679;50.392;8.008;2024-02-14T00:31:17;6.60;99.90
3334;DHT22;1679;50.392;8.008;2024-02-14T00:33:43;6.60;99.90
3334;DHT22;1679;50.392;8.008;2024-02-14T00:36:10;6.60;99.90
3334;DHT22;1679;50.392;8.008;2024-02-14T00:38:36;6.60;99.90
3334;DHT22;1679;50.392;8.008;2024-02-14T00:41:01;6.60;99.90
3334;DHT22;1679;50.392;8.008;2024-02-14T00:43:27;6.60;99.90
3334;DHT22;1679;50.392;8.008;2024-02-14T00:45:52;6.70;99.90
3334;DHT22;1679;50.392;8.008;2024-02-14T00:48:18;6.70;99.90
3334;DHT22;1679;50.392;8.008;2024-02-14T00:50:43;6.70;99.90
3334;DHT22;1679;50.392;8.008;2024-02-14T00:53:09;6.70;99.90
3334;DHT22;1679;50.392;8.008;2024-02-14T00:55:34;6.70;99.90
3334;DHT22;1679;50.392;8.008;2024-02-14T00:58:00;6.70;99.90
3334;DHT22;1679;50.392;8.008;2024-02-14T01:00:25;6.70;99.90
3334;DHT22;1679;50.392;8.008;2024-02-14T01:02:51;6.70;99.90
3334;DHT22;1679;50.392;8.008;2024-02-14T01:05:17;6.70;99.90
3334;DHT22;1679;50.392;8.008;2024-02-14T01:07:42;6.70;99.90
3334;DHT22;1679;50.392;8.008;2024-02-14T01:10:08;6.70;99.90
3334;DHT22;1679;50.392;8.008;2024-02-14T01:12:33;6.70;99.90
3334;DHT22;1679;50.392;8.008;2024-02-14T01:14:59;6.70;99.90
3334;DHT22;1679;50.392;8.008;2024-02-14T01:17:24;6.60;99.90
3334;DHT22;1679;50.392;8.008;2024-02-14T01:19:50;6.70;99.90
3334;DHT22;1679;50.392;8.008;2024-02-14T01:22:16;6.70;99.90
3334;DHT22;1679;50.392;8.008;2024-02-14T01:24:44;6.60;99.90
3334;DHT22;1679;50.392;8.008;2024-02-14T01:27:10;6.60;99.90
3334;DHT22;1679;50.392;8.008;2024-02-14T01:29:36;6.70;99.90
3334;DHT22;1679;50.392;8.008;2024-02-14T01:32:01;6.60;99.90
3334;DHT22;1679;50.392;8.008;2024-02-14T01:34:27;6.60;99.90
3334;DHT22;1679;50.392;8.008;2024-02-14T01:36:53;6.60;99.90
3334;DHT22;1679;50.392;8.008;2024-02-14T01:39:20;6.60;99.90
3334;DHT22;1679;50.392;8.008;2024-02-14T01:41:47;6.70;99.90
3334;DHT22;1679;50.392;8.008;2024-02-14T01:44:14;6.70;99.90
3334;DHT22;1679;50.392;8.008;2024-02-14T01:46:41;6.70;99.90
3334;DHT22;1679;50.392;8.008;2024-02-14T01:49:07;6.70;99.90
3334;DHT22;1679;50.392;8.008;2024-02-14T01:51:35;6.60;99.90
3334;DHT22;1679;50.392;8.008;2024-02-14T01:54:02;6.70;99.90
3334;DHT22;1679;50.392;8.008;2024-02-14T01:56:29;6.70;99.90
3334;DHT22;1679;50.392;8.008;2024-02-14T01:58:56;6.70;99.90
3334;DHT22;1679;50.392;8.008;2024-02-14T02:01:21;6.80;99.90
3334;DHT22;1679;50.392;8.008;2024-02-14T02:03:49;6.80;99.90
3334;DHT22;1679;50.392;8.008;2024-02-14T02:06:14;6.80;99.90
3334;DHT22;1679;50.392;8.008;2024-02-14T02:08:43;6.80;99.90
3334;DHT22;1679;50.392;8.008;2024-02-14T02:11:09;6.80;99.90
3334;DHT22;1679;50.392;8.008;2024-02-14T02:13:34;6.90;99.90
3334;DHT22;1679;50.392;8.008;2024-02-14T02:16:00;6.90;99.90
3334;DHT22;1679;50.392;8.008;2024-02-14T02:18:30;7.00;99.90
3334;DHT22;1679;50.392;8.008;2024-02-14T02:20:56;7.10;99.90
3334;DHT22;1679;50.392;8.008;2024-02-14T02:23:22;7.20;99.90
3334;DHT22;1679;50.392;8.008;2024-02-14T02:25:48;7.20;99.90
3334;DHT22;1679;50.392;8.008;2024-02-14T02:28:14;7.20;99.90
3334;DHT22;1679;50.392;8.008;2024-02-14T02:30:40;7.30;99.90
3334;DHT22;1679;50.392;8.008;2024-02-14T02:33:05;7.30;99.90
3334;DHT22;1679;50.392;8.008;2024-02-14T02:35:32;7.30;99.90
3334;DHT22;1679;50.392;8.008;2024-02-14T02:37:58;7.30;99.90
3334;DHT22;1679;50.392;8.008;2024-02-14T02:40:24;7.30;99.90
3334;DHT22;1679;50.392;8.008;2024-02-14T02:42:51;7.30;99.90
3334;DHT22;1679;50.392;8.008;2024-02-14T02:45:17;7.40;99.90
3334;DHT22;1679;50.392;8.008;2024-02-14T02:47:42;7.40;99.90
3334;DHT22;1679;50.392;8.008;2024-02-14T02:50:08;7.40;99.90
3334;DHT22;1679;50.392;8.008;2024-02-14T02:52:34;7.40;99.90
3334;DHT22;1679;50.392;8.008;2024-02-14T02:55:00;7.40;99.90
3334;DHT22;1679;50.392;8.008;2024-02-14T02:57:30;7.40;99.90
3334;DHT22;1679;50.392;8.008;2024-02-14T02:59:57;7.40;99.90
3334;DHT22;1679;50.392;8.008;2024-02-14T03:02:23;7.40;99.90
3334;DHT22;1679;50.392;8.008;2024-02-14T03:04:48;7.40;99.90
3334;DHT22;1679;50.392;8.008;2024-02-14T03:07:16;7.50;99.90
3334;DHT22;1679;50.392;8.008;2024-02-14T03:09:41;7.50;99.90
3334;DHT22;1679;50.392;8.008;2024-02-14T03:12:07;7.50;99.90
3334;DHT22;1679;50.392;8.008;2024-02-14T03:14:34;7.50;99.90
3334;DHT22;1679;50.392;8.008;2024-02-14T03:17:00;7.60;99.90
3334;DHT22;1679;50.392;8.008;2024-02-14T03:19:26;7.60;99.90
3334;DHT22;1679;50.392;8.008;2024-02-14T03:21:53;7.50;99.90
3334;DHT22;1679;50.392;8.008;2024-02-14T03:24:19;7.60;99.90
3334;DHT22;1679;50.392;8.008;2024-02-14T03:26:45;7.50;99.90
3334;DHT22;1679;50.392;8.008;2024-02-14T03:29:10;7.60;99.90
3334;DHT22;1679;50.392;8.008;2024-02-14T03:31:36;7.60;99.90
3334;DHT22;1679;50.392;8.008;2024-02-14T03:34:02;7.60;99.90
3334;DHT22;1679;50.392;8.008;2024-02-14T03:36:28;7.60;99.90
3334;DHT22;1679;50.392;8.008;2024-02-14T03:38:58;7.60;99.90
3334;DHT22;1679;50.392;8.008;2024-02-14T03:41:24;7.60;99.90
3334;DHT22;1679;50.392;8.008;2024-02-14T03:43:50;7.60;99.90
3334;DHT22;1679;50.392;8.008;2024-02-14T03:46:16;7.60;99.90
3334;DHT22;1679;50.392;8.008;2024-02-14T03:48:43;7.60;99.90
3334;DHT22;1679;50.392;8.008;2024-02-14T03:51:09;7.60;99.90
3334;DHT22;1679;50.392;8.008;2024-02-14T03:53:34;7.70;99.90
3334;DHT22;1679;50.392;8.008;2024-02-14T03:56:00;7.70;99.90
3334;DHT22;1679;50.392;8.008;2024-02-14T03:58:26;7.70;99.90
3334;DHT22;1679;50.392;8.008;2024-02-14T04:00:51;7.60;99.90
3334;DHT22;1679;50.392;8.008;2024-02-14T04:03:17;7.70;99.90
3334;DHT22;1679;50.392;8.008;2024-02-14T04:05:43;7.60;99.90
3334;DHT22;1679;50.392;8.008;2024-02-14T04:08:09;7.70;99.90
3334;DHT22;1679;50.392;8.008;2024-02-14T04:10:38;7.70;99.90
3334;DHT22;1679;50.392;8.008;2024-02-14T04:13:04;7.80;99.90
3334;DHT22;1679;50.392;8.008;2024-02-14T04:15:33;7.70;99.90
3334;DHT22;1679;50.392;8.008;2024-02-14T04:17:58;7.70;99.90
3334;DHT22;1679;50.392;8.008;2024-02-14T04:20:25;7.60;99.90
3334;DHT22;1679;50.392;8.008;2024-02-14T04:22:50;7.70;99.90
3334;DHT22;1679;50.392;8.008;2024-02-14T04:25:16;7.70;99.90
3334;DHT22;1679;50.392;8.008;2024-02-14T04:27:41;7.60;99.90
3334;DHT22;1679;50.392;8.008;2024-02-14T04:30:07;7.60;99.90
3334;DHT22;1679;50.392;8.008;2024-02-14T04:32:33;7.70;99.90
3334;DHT22;1679;50.392;8.008;2024-02-14T04:34:59;7.70;99.90
3334;DHT22;1679;50.392;8.008;2024-02-14T04:37:24;7.80;99.90
3334;DHT22;1679;50.392;8.008;2024-02-14T04:39:50;7.80;99.90
3334;DHT22;1679;50.392;8.008;2024-02-14T04:42:15;7.80;99.90
3334;DHT22;1679;50.392;8.008;2024-02-14T04:44:41;7.80;99.90
3334;DHT22;1679;50.392;8.008;2024-02-14T04:47:06;7.80;99.90
3334;DHT22;1679;50.392;8.008;2024-02-14T04:49:35;7.80;99.90
3334;DHT22;1679;50.392;8.008;2024-02-14T04:52:00;7.80;99.90
3334;DHT22;1679;50.392;8.008;2024-02-14T04:54:26;7.70;99.90
3334;DHT22;1679;50.392;8.008;2024-02-14T04:56:51;7.70;99.90
3334;DHT22;1679;50.392;8.008;2024-02-14T04:59:17;7.70;99.90
3334;DHT22;1679;50.392;8.008;2024-02-14T05:01:42;7.60;99.90
3334;DHT22;1679;50.392;8.008;2024-02-14T05:04:08;7.70;99.90
3334;DHT22;1679;50.392;8.008;2024-02-14T05:06:33;7.60;99.90
3334;DHT22;1679;50.392;8.008;2024-02-14T05:08:59;7.60;99.90
3334;DHT22;1679;50.392;8.008;2024-02-14T05:11:25;7.60;99.90
3334;DHT22;1679;50.392;8.008;2024-02-14T05:13:50;7.50;99.90
3334;DHT22;1679;50.392;8.008;2024-02-14T05:16:19;7.50;99.90
3334;DHT22;1679;50.392;8.008;2024-02-14T05:18:45;7.50;99.90
3334;DHT22;1679;50.392;8.008;2024-02-14T05:21:11;7.50;99.90
3334;DHT22;1679;50.392;8.008;2024-02-14T05:23:37;7.50;99.90
3334;DHT22;1679;50.392;8.008;2024-02-14T05:26:03;7.60;99.90
3334;DHT22;1679;50.392;8.008;2024-02-14T05:28:29;7.60;99.90
3334;DHT22;1679;50.392;8.008;2024-02-14T05:30:55;7.60;99.90
3334;DHT22;1679;50.392;8.008;2024-02-14T05:33:21;7.60;99.90
3334;DHT22;1679;50.392;8.008;2024-02-14T05:35:50;7.60;99.90
3334;DHT22;1679;50.392;8.008;2024-02-14T05:38:16;7.60;99.90
3334;DHT22;1679;50.392;8.008;2024-02-14T05:40:45;7.60;99.90
3334;DHT22;1679;50.392;8.008;2024-02-14T05:43:10;7.60;99.90
3334;DHT22;1679;50.392;8.008;2024-02-14T05:45:36;7.60;99.90
3334;DHT22;1679;50.392;8.008;2024-02-14T05:48:02;7.70;99.90
3334;DHT22;1679;50.392;8.008;2024-02-14T05:50:28;7.70;99.90
3334;DHT22;1679;50.392;8.008;2024-02-14T05:52:53;7.70;99.90
3334;DHT22;1679;50.392;8.008;2024-02-14T05:55:19;7.70;99.90
3334;DHT22;1679;50.392;8.008;2024-02-14T05:57:44;7.60;99.90
3334;DHT22;1679;50.392;8.008;2024-02-14T06:00:10;7.60;99.90
3334;DHT22;1679;50.392;8.008;2024-02-14T06:02:38;7.60;99.90
3334;DHT22;1679;50.392;8.008;2024-02-14T06:05:05;7.70;99.90
3334;DHT22;1679;50.392;8.008;2024-02-14T06:07:37;7.70;99.90
3334;DHT22;1679;50.392;8.008;2024-02-14T06:10:03;7.70;99.90
3334;DHT22;1679;50.392;8.008;2024-02-14T06:12:28;7.70;99.90
3334;DHT22;1679;50.392;8.008;2024-02-14T06:14:55;7.70;99.90
3334;DHT22;1679;50.392;8.008;2024-02-14T06:17:21;7.80;99.90
3334;DHT22;1679;50.392;8.008;2024-02-14T06:19:46;7.80;99.90
3334;DHT22;1679;50.392;8.008;2024-02-14T06:22:12;7.80;99.90
3334;DHT22;1679;50.392;8.008;2024-02-14T06:24:37;7.80;99.90
3334;DHT22;1679;50.392;8.008;2024-02-14T06:27:03;7.80;99.90
3334;DHT22;1679;50.392;8.008;2024-02-14T06:29:28;7.80;99.90
3334;DHT22;1679;50.392;8.008;2024-02-14T06:31:54;7.80;99.90
3334;DHT22;1679;50.392;8.008;2024-02-14T06:34:19;7.80;99.90
3334;DHT22;1679;50.392;8.008;2024-02-14T06:36:46;7.80;99.90
3334;DHT22;1679;50.392;8.008;2024-02-14T06:39:12;7.80;99.90
3334;DHT22;1679;50.392;8.008;2024-02-14T06:41:37;7.90;99.90
3334;DHT22;1679;50.392;8.008;2024-02-14T06:44:04;7.90;99.90
3334;DHT22;1679;50.392;8.008;2024-02-14T06:46:30;7.90;99.90
3334;DHT22;1679;50.392;8.008;2024-02-14T06:48:56;7.90;99.90
3334;DHT22;1679;50.392;8.008;2024-02-14T06:51:22;7.90;99.90
3334;DHT22;1679;50.392;8.008;2024-02-14T06:53:49;7.90;99.90
3334;DHT22;1679;50.392;8.008;2024-02-14T06:56:15;7.90;99.90
3334;DHT22;1679;50.392;8.008;2024-02-14T06:58:40;7.90;99.90
3334;DHT22;1679;50.392;8.008;2024-02-14T07:01:06;7.90;99.90
3334;DHT22;1679;50.392;8.008;2024-02-14T07:03:31;8.00;99.90
3334;DHT22;1679;50.392;8.008;2024-02-14T07:05:57;8.00;99.90
3334;DHT22;1679;50.392;8.008;2024-02-14T07:08:23;8.00;99.90
3334;DHT22;1679;50.392;8.008;2024-02-14T07:10:51;8.00;99.90
3334;DHT22;1679;50.392;8.008;2024-02-14T07:13:16;8.00;99.90
3334;DHT22;1679;50.392;8.008;2024-02-14T07:15:42;8.00;99.90
3334;DHT22;1679;50.392;8.008;2024-02-14T07:18:08;8.00;99.90
3334;DHT22;1679;50.392;8.008;2024-02-14T07:20:35;8.00;99.90
3334;DHT22;1679;50.392;8.008;2024-02-14T07:23:00;8.00;99.90
3334;DHT22;1679;50.392;8.008;2024-02-14T07:25:27;8.10;99.90
3334;DHT22;1679;50.392;8.008;2024-02-14T07:27:52;8.10;99.90
3334;DHT22;1679;50.392;8.008;2024-02-14T07:30:18;8.10;99.90
3334;DHT22;1679;50.392;8.008;2024-02-14T07:32:44;8.20;99.90
3334;DHT22;1679;50.392;8.008;2024-02-14T07:35:10;8.20;99.90
3334;DHT22;1679;50.392;8.008;2024-02-14T07:37:36;8.20;99.90
3334;DHT22;1679;50.392;8.008;2024-02-14T07:40:02;8.30;99.90
3334;DHT22;1679;50.392;8.008;2024-02-14T07:42:28;8.30;99.90
3334;DHT22;1679;50.392;8.008;2024-02-14T07:44:53;8.40;99.90
3334;DHT22;1679;50.392;8.008;2024-02-14T07:47:21;8.30;99.90
3334;DHT22;1679;50.392;8.008;2024-02-14T07:49:47;8.40;99.90
3334;DHT22;1679;50.392;8.008;2024-02-14T07:52:12;8.40;99.90
3334;DHT22;1679;50.392;8.008;2024-02-14T07:54:38;8.40;99.90
3334;DHT22;1679;50.392;8.008;2024-02-14T07:57:03;8.50;99.90
3334;DHT22;1679;50.392;8.008;2024-02-14T07:59:29;8.60;99.90
3334;DHT22;1679;50.392;8.008;2024-02-14T08:01:54;8.60;99.90
3334;DHT22;1679;50.392;8.008;2024-02-14T08:04:20;8.70;99.90
3334;DHT22;1679;50.392;8.008;2024-02-14T08:06:46;8.80;99.90
3334;DHT22;1679;50.392;8.008;2024-02-14T08:09:14;9.00;99.90
3334;DHT22;1679;50.392;8.008;2024-02-14T08:11:40;9.00;99.90
3334;DHT22;1679;50.392;8.008;2024-02-14T08:14:05;9.10;99.90
3334;DHT22;1679;50.392;8.008;2024-02-14T08:16:31;9.10;99.90
3334;DHT22;1679;50.392;8.008;2024-02-14T08:18:57;9.10;99.90
3334;DHT22;1679;50.392;8.008;2024-02-14T08:21:25;9.20;99.90
3334;DHT22;1679;50.392;8.008;2024-02-14T08:23:52;9.30;99.90
3334;DHT22;1679;50.392;8.008;2024-02-14T08:26:18;9.30;99.90
3334;DHT22;1679;50.392;8.008;2024-02-14T08:28:43;9.30;99.90
3334;DHT22;1679;50.392;8.008;2024-02-14T08:31:12;9.30;99.90
3334;DHT22;1679;50.392;8.008;2024-02-14T08:33:37;9.20;99.90
3334;DHT22;1679;50.392;8.008;2024-02-14T08:36:06;9.30;99.90
3334;DHT22;1679;50.392;8.008;2024-02-14T08:38:35;9.40;99.90
3334;DHT22;1679;50.392;8.008;2024-02-14T08:41:01;9.50;99.90
3334;DHT22;1679;50.392;8.008;2024-02-14T08:43:28;9.70;99.90
3334;DHT22;1679;50.392;8.008;2024-02-14T08:45:56;9.90;99.90
3334;DHT22;1679;50.392;8.008;2024-02-14T08:48:22;10.00;99.90
3334;DHT22;1679;50.392;8.008;2024-02-14T08:50:48;10.20;99.90
3334;DHT22;1679;50.392;8.008;2024-02-14T08:53:14;10.40;99.90
3334;DHT22;1679;50.392;8.008;2024-02-14T08:55:40;10.70;99.90
3334;DHT22;1679;50.392;8.008;2024-02-14T08:58:06;10.80;99.90
3334;DHT22;1679;50.392;8.008;2024-02-14T09:00:32;10.80;99.90
3334;DHT22;1679;50.392;8.008;2024-02-14T09:03:00;11.00;99.90
3334;DHT22;1679;50.392;8.008;2024-02-14T09:05:26;11.20;99.90
3334;DHT22;1679;50.392;8.008;2024-02-14T09:07:53;11.10;99.90
3334;DHT22;1679;50.392;8.008;2024-02-14T09:10:19;11.00;99.90
3334;DHT22;1679;50.392;8.008;2024-02-14T09:12:45;10.80;99.90
3334;DHT22;1679;50.392;8.008;2024-02-14T09:15:10;10.70;99.90
3334;DHT22;1679;50.392;8.008;2024-02-14T09:17:37;10.70;99.90
3334;DHT22;1679;50.392;8.008;2024-02-14T09:20:04;10.60;99.90
3334;DHT22;1679;50.392;8.008;2024-02-14T09:22:31;10.70;99.90
3334;DHT22;1679;50.392;8.008;2024-02-14T09:24:58;10.60;99.90
3334;DHT22;1679;50.392;8.008;2024-02-14T09:27:24;10.60;99.90
3334;DHT22;1679;50.392;8.008;2024-02-14T09:29:49;10.40;99.90
3334;DHT22;1679;50.392;8.008;2024-02-14T09:32:15;10.40;99.90
3334;DHT22;1679;50.392;8.008;2024-02-14T09:34:40;10.30;99.90
3334;DHT22;1679;50.392;8.008;2024-02-14T09:37:06;10.30;99.90
3334;DHT22;1679;50.392;8.008;2024-02-14T09:39:32;10.30;99.90
3334;DHT22;1679;50.392;8.008;2024-02-14T09:41:59;10.40;99.90
3334;DHT22;1679;50.392;8.008;2024-02-14T09:44:28;10.40;99.90
3334;DHT22;1679;50.392;8.008;2024-02-14T09:46:57;10.40;99.90
3334;DHT22;1679;50.392;8.008;2024-02-14T09:49:24;10.50;99.90
3334;DHT22;1679;50.392;8.008;2024-02-14T09:51:51;10.60;99.90
3334;DHT22;1679;50.392;8.008;2024-02-14T09:54:17;10.70;99.90
3334;DHT22;1679;50.392;8.008;2024-02-14T09:56:49;10.80;99.90
3334;DHT22;1679;50.392;8.008;2024-02-14T09:59:16;10.80;99.90
3334;DHT22;1679;50.392;8.008;2024-02-14T10:01:42;10.80;99.90
3334;DHT22;1679;50.392;8.008;2024-02-14T10:04:08;10.90;99.90
3334;DHT22;1679;50.392;8.008;2024-02-14T10:06:35;11.00;99.90
3334;DHT22;1679;50.392;8.008;2024-02-14T10:09:01;11.10;99.90
3334;DHT22;1679;50.392;8.008;2024-02-14T10:11:26;11.20;99.90
3334;DHT22;1679;50.392;8.008;2024-02-14T10:13:52;11.30;99.90
3334;DHT22;1679;50.392;8.008;2024-02-14T10:16:19;11.40;99.90
3334;DHT22;1679;50.392;8.008;2024-02-14T10:18:45;11.40;99.90
3334;DHT22;1679;50.392;8.008;2024-02-14T10:21:15;11.40;99.90
3334;DHT22;1679;50.392;8.008;2024-02-14T10:23:43;11.40;99.90
3334;DHT22;1679;50.392;8.008;2024-02-14T10:26:08;11.50;99.90
3334;DHT22;1679;50.392;8.008;2024-02-14T10:28:34;11.60;99.90
3334;DHT22;1679;50.392;8.008;2024-02-14T10:31:00;11.70;99.90
3334;DHT22;1679;50.392;8.008;2024-02-14T10:33:28;11.80;99.90
3334;DHT22;1679;50.392;8.008;2024-02-14T10:35:55;11.90;99.90
3334;DHT22;1679;50.392;8.008;2024-02-14T10:38:22;12.00;99.90
3334;DHT22;1679;50.392;8.008;2024-02-14T10:40:48;12.00;99.90
3334;DHT22;1679;50.392;8.008;2024-02-14T10:43:14;12.00;99.90
3334;DHT22;1679;50.392;8.008;2024-02-14T10:45:40;11.80;99.90
3334;DHT22;1679;50.392;8.008;2024-02-14T10:48:07;11.70;99.90
3334;DHT22;1679;50.392;8.008;2024-02-14T10:50:35;11.60;99.90
3334;DHT22;1679;50.392;8.008;2024-02-14T10:53:04;11.50;99.90
3334;DHT22;1679;50.392;8.008;2024-02-14T10:55:33;11.50;99.90
3334;DHT22;1679;50.392;8.008;2024-02-14T10:57:59;11.50;99.90
3334;DHT22;1679;50.392;8.008;2024-02-14T11:00:25;11.60;99.90
3334;DHT22;1679;50.392;8.008;2024-02-14T11:02:52;11.60;99.90
3334;DHT22;1679;50.392;8.008;2024-02-14T11:05:19;11.60;99.90
3334;DHT22;1679;50.392;8.008;2024-02-14T11:07:48;11.70;99.90
3334;DHT22;1679;50.392;8.008;2024-02-14T11:10:21;11.70;99.90
3334;DHT22;1679;50.392;8.008;2024-02-14T11:12:48;11.80;99.90
3334;DHT22;1679;50.392;8.008;2024-02-14T11:15:23;11.80;99.90
3334;DHT22;1679;50.392;8.008;2024-02-14T11:18:03;11.70;99.90
3334;DHT22;1679;50.392;8.008;2024-02-14T11:20:34;11.70;99.90
3334;DHT22;1679;50.392;8.008;2024-02-14T11:23:03;11.90;99.90
3334;DHT22;1679;50.392;8.008;2024-02-14T11:25:32;11.80;99.90
3334;DHT22;1679;50.392;8.008;2024-02-14T11:27:58;11.70;99.90
3334;DHT22;1679;50.392;8.008;2024-02-14T11:30:33;11.70;99.90
3334;DHT22;1679;50.392;8.008;2024-02-14T11:33:16;11.90;99.90
3334;DHT22;1679;50.392;8.008;2024-02-14T11:35:43;11.90;99.90
3334;DHT22;1679;50.392;8.008;2024-02-14T11:38:09;12.00;99.90
3334;DHT22;1679;50.392;8.008;2024-02-14T11:40:36;12.00;99.90
3334;DHT22;1679;50.392;8.008;2024-02-14T11:43:03;12.10;99.90
3334;DHT22;1679;50.392;8.008;2024-02-14T11:45:29;12.10;99.90
3334;DHT22;1679;50.392;8.008;2024-02-14T11:47:55;12.00;99.90
3334;DHT22;1679;50.392;8.008;2024-02-14T11:50:21;11.90;99.90
3334;DHT22;1679;50.392;8.008;2024-02-14T11:52:46;11.70;99.90
3334;DHT22;1679;50.392;8.008;2024-02-14T11:55:17;11.60;99.90
3334;DHT22;1679;50.392;8.008;2024-02-14T11:57:43;11.50;99.90
3334;DHT22;1679;50.392;8.008;2024-02-14T12:00:08;11.40;99.90
3334;DHT22;1679;50.392;8.008;2024-02-14T12:02:35;11.40;99.90
3334;DHT22;1679;50.392;8.008;2024-02-14T12:05:01;11.40;99.90
3334;DHT22;1679;50.392;8.008;2024-02-14T12:07:30;11.40;99.90
3334;DHT22;1679;50.392;8.008;2024-02-14T12:09:56;11.40;99.90
3334;DHT22;1679;50.392;8.008;2024-02-14T12:12:22;11.30;99.90
3334;DHT22;1679;50.392;8.008;2024-02-14T12:14:52;11.30;99.90
3334;DHT22;1679;50.392;8.008;2024-02-14T12:17:17;11.30;99.90
3334;DHT22;1679;50.392;8.008;2024-02-14T12:19:47;11.40;99.90
3334;DHT22;1679;50.392;8.008;2024-02-14T12:22:15;11.40;99.90
3334;DHT22;1679;50.392;8.008;2024-02-14T12:24:46;11.40;99.90
3334;DHT22;1679;50.392;8.008;2024-02-14T12:27:17;11.40;99.90
3334;DHT22;1679;50.392;8.008;2024-02-14T12:29:45;11.50;99.90
3334;DHT22;1679;50.392;8.008;2024-02-14T12:32:11;11.50;99.90
3334;DHT22;1679;50.392;8.008;2024-02-14T12:34:37;11.50;99.90
3334;DHT22;1679;50.392;8.008;2024-02-14T12:37:03;11.40;99.90
3334;DHT22;1679;50.392;8.008;2024-02-14T12:39:29;11.30;99.90
3334;DHT22;1679;50.392;8.008;2024-02-14T12:41:54;11.20;99.90
3334;DHT22;1679;50.392;8.008;2024-02-14T12:44:20;11.30;99.90
3334;DHT22;1679;50.392;8.008;2024-02-14T12:46:46;11.30;99.90
3334;DHT22;1679;50.392;8.008;2024-02-14T12:49:11;11.30;99.90
3334;DHT22;1679;50.392;8.008;2024-02-14T12:51:37;11.40;99.90
3334;DHT22;1679;50.392;8.008;2024-02-14T12:54:04;11.40;99.90
3334;DHT22;1679;50.392;8.008;2024-02-14T12:56:29;11.40;99.90
3334;DHT22;1679;50.392;8.008;2024-02-14T12:58:55;11.40;99.90
3334;DHT22;1679;50.392;8.008;2024-02-14T13:01:20;11.50;99.90
3334;DHT22;1679;50.392;8.008;2024-02-14T13:03:46;11.40;99.90
3334;DHT22;1679;50.392;8.008;2024-02-14T13:06:11;11.50;99.90
3334;DHT22;1679;50.392;8.008;2024-02-14T13:08:39;11.60;99.90
3334;DHT22;1679;50.392;8.008;2024-02-14T13:11:05;11.70;99.90
3334;DHT22;1679;50.392;8.008;2024-02-14T13:13:30;11.90;99.90
3334;DHT22;1679;50.392;8.008;2024-02-14T13:15:56;12.10;99.90
3334;DHT22;1679;50.392;8.008;2024-02-14T13:18:21;12.30;99.90
3334;DHT22;1679;50.392;8.008;2024-02-14T13:20:47;12.40;99.90
3334;DHT22;1679;50.392;8.008;2024-02-14T13:23:13;12.50;99.90
3334;DHT22;1679;50.392;8.008;2024-02-14T13:25:39;12.70;99.90
3334;DHT22;1679;50.392;8.008;2024-02-14T13:28:05;12.80;99.90
3334;DHT22;1679;50.392;8.008;2024-02-14T13:30:31;12.80;99.90
3334;DHT22;1679;50.392;8.008;2024-02-14T13:32:56;12.80;99.90
3334;DHT22;1679;50.392;8.008;2024-02-14T13:35:22;12.70;99.90
3334;DHT22;1679;50.392;8.008;2024-02-14T13:37:49;12.50;99.90
3334;DHT22;1679;50.392;8.008;2024-02-14T13:40:14;12.40;99.90
3334;DHT22;1679;50.392;8.008;2024-02-14T13:42:40;12.30;99.90
3334;DHT22;1679;50.392;8.008;2024-02-14T13:45:06;12.10;99.90
3334;DHT22;1679;50.392;8.008;2024-02-14T13:47:36;12.00;99.90
3334;DHT22;1679;50.392;8.008;2024-02-14T13:50:03;11.80;99.90
3334;DHT22;1679;50.392;8.008;2024-02-14T13:52:29;11.80;99.90
3334;DHT22;1679;50.392;8.008;2024-02-14T13:54:54;11.70;99.90
3334;DHT22;1679;50.392;8.008;2024-02-14T13:57:20;11.60;99.90
3334;DHT22;1679;50.392;8.008;2024-02-14T13:59:46;11.60;99.90
3334;DHT22;1679;50.392;8.008;2024-02-14T14:02:12;11.50;99.90
3334;DHT22;1679;50.392;8.008;2024-02-14T14:04:37;11.50;99.90
3334;DHT22;1679;50.392;8.008;2024-02-14T14:07:03;11.40;99.90
3334;DHT22;1679;50.392;8.008;2024-02-14T14:09:30;11.50;99.90
3334;DHT22;1679;50.392;8.008;2024-02-14T14:11:58;11.50;99.90
3334;DHT22;1679;50.392;8.008;2024-02-14T14:14:23;11.60;99.90
3334;DHT22;1679;50.392;8.008;2024-02-14T14:16:52;11.60;99.90
3334;DHT22;1679;50.392;8.008;2024-02-14T14:19:18;11.50;99.90
3334;DHT22;1679;50.392;8.008;2024-02-14T14:21:43;11.50;99.90
3334;DHT22;1679;50.392;8.008;2024-02-14T14:24:09;11.60;99.90
3334;DHT22;1679;50.392;8.008;2024-02-14T14:26:34;11.60;99.90
3334;DHT22;1679;50.392;8.008;2024-02-14T14:29:01;11.50;99.90
3334;DHT22;1679;50.392;8.008;2024-02-14T14:31:26;11.60;99.90
3334;DHT22;1679;50.392;8.008;2024-02-14T14:33:52;11.60;99.90
3334;DHT22;1679;50.392;8.008;2024-02-14T14:36:19;11.60;99.90
3334;DHT22;1679;50.392;8.008;2024-02-14T14:38:45;11.60;99.90
3334;DHT22;1679;50.392;8.008;2024-02-14T14:41:10;11.60;99.90
3334;DHT22;1679;50.392;8.008;2024-02-14T14:43:36;11.70;99.90
3334;DHT22;1679;50.392;8.008;2024-02-14T14:46:01;11.70;99.90
3334;DHT22;1679;50.392;8.008;2024-02-14T14:48:27;11.70;99.90
3334;DHT22;1679;50.392;8.008;2024-02-14T14:50:53;11.70;99.90
3334;DHT22;1679;50.392;8.008;2024-02-14T14:53:18;11.60;99.90
3334;DHT22;1679;50.392;8.008;2024-02-14T14:55:52;11.60;99.90
3334;DHT22;1679;50.392;8.008;2024-02-14T14:58:18;11.60;99.90
3334;DHT22;1679;50.392;8.008;2024-02-14T15:00:44;11.70;99.90
3334;DHT22;1679;50.392;8.008;2024-02-14T15:03:10;11.60;99.90
3334;DHT22;1679;50.392;8.008;2024-02-14T15:05:39;11.60;99.90
3334;DHT22;1679;50.392;8.008;2024-02-14T15:08:08;11.60;99.90
3334;DHT22;1679;50.392;8.008;2024-02-14T15:10:34;11.60;99.90
3334;DHT22;1679;50.392;8.008;2024-02-14T15:13:00;11.60;99.90
3334;DHT22;1679;50.392;8.008;2024-02-14T15:15:26;11.60;99.90
3334;DHT22;1679;50.392;8.008;2024-02-14T15:17:51;11.60;99.90
3334;DHT22;1679;50.392;8.008;2024-02-14T15:20:17;11.50;99.90
3334;DHT22;1679;50.392;8.008;2024-02-14T15:22:42;11.50;99.90
3334;DHT22;1679;50.392;8.008;2024-02-14T15:25:08;11.50;99.90
3334;DHT22;1679;50.392;8.008;2024-02-14T15:27:33;11.60;99.90
3334;DHT22;1679;50.392;8.008;2024-02-14T15:30:01;11.60;99.90
3334;DHT22;1679;50.392;8.008;2024-02-14T15:32:45;11.60;99.90
3334;DHT22;1679;50.392;8.008;2024-02-14T15:35:29;11.50;99.90
3334;DHT22;1679;50.392;8.008;2024-02-14T15:37:55;11.50;99.90
3334;DHT22;1679;50.392;8.008;2024-02-14T15:40:20;11.40;99.90
3334;DHT22;1679;50.392;8.008;2024-02-14T15:42:47;11.30;99.90
3334;DHT22;1679;50.392;8.008;2024-02-14T15:45:13;11.20;99.90
3334;DHT22;1679;50.392;8.008;2024-02-14T15:47:45;11.20;99.90
3334;DHT22;1679;50.392;8.008;2024-02-14T15:50:11;11.10;99.90
3334;DHT22;1679;50.392;8.008;2024-02-14T15:52:37;11.10;99.90
3334;DHT22;1679;50.392;8.008;2024-02-14T15:55:04;11.00;99.90
3334;DHT22;1679;50.392;8.008;2024-02-14T15:57:30;11.00;99.90
3334;DHT22;1679;50.392;8.008;2024-02-14T15:59:56;11.00;99.90
3334;DHT22;1679;50.392;8.008;2024-02-14T16:02:21;10.90;99.90
3334;DHT22;1679;50.392;8.008;2024-02-14T16:04:47;10.80;99.90